createdAt,value
2019-01-25T00:01:54.737Z,0.62
2019-01-25T00:04:20.758Z,0.60
2019-01-25T00:06:46.675Z,0.55
2019-01-25T00:09:12.553Z,0.55
2019-01-25T00:11:38.469Z,0.46
2019-01-25T00:14:04.576Z,0.64
2019-01-25T00:16:30.658Z,0.54
2019-01-25T00:18:56.637Z,0.48
2019-01-25T00:21:22.749Z,0.40
2019-01-25T00:23:52.271Z,0.41
2019-01-25T00:26:18.406Z,0.33
2019-01-25T00:28:44.494Z,0.26
2019-01-25T00:31:10.369Z,0.31
2019-01-25T00:33:36.247Z,0.30
2019-01-25T00:36:02.261Z,0.31
2019-01-25T00:38:28.133Z,0.30
2019-01-25T00:40:54.019Z,0.33
2019-01-25T00:43:19.934Z,0.33
2019-01-25T00:45:45.902Z,0.37
2019-01-25T00:48:11.804Z,0.34
2019-01-25T00:50:37.702Z,0.43
2019-01-25T00:53:03.668Z,0.32
2019-01-25T00:55:29.541Z,0.35
2019-01-25T00:57:55.459Z,0.24
2019-01-25T01:00:23.592Z,0.21
2019-01-25T01:02:49.467Z,0.14
2019-01-25T01:05:15.553Z,0.17
2019-01-25T01:07:41.645Z,0.14
2019-01-25T01:10:13.980Z,0.20
2019-01-25T01:12:37.398Z,0.21
2019-01-25T01:15:06.960Z,0.17
2019-01-25T01:17:32.969Z,0.18
2019-01-25T01:20:00.231Z,0.15
2019-01-25T01:22:26.198Z,0.12
2019-01-25T01:24:52.176Z,0.16
2019-01-25T01:27:18.143Z,0.12
2019-01-25T01:29:44.070Z,0.03
2019-01-25T01:32:10.066Z,0.01
2019-01-25T01:34:35.971Z,0.09
2019-01-25T01:37:01.901Z,0.10
2019-01-25T01:39:27.794Z,0.22
2019-01-25T01:41:53.666Z,0.31
2019-01-25T01:44:19.554Z,0.24
2019-01-25T01:46:45.423Z,0.19
2019-01-25T01:49:11.436Z,0.24
2019-01-25T01:51:37.360Z,0.28
2019-01-25T01:54:03.315Z,0.26
2019-01-25T01:56:29.170Z,0.21
2019-01-25T01:58:55.046Z,0.18
2019-01-25T02:01:20.985Z,0.21
2019-01-25T02:03:46.848Z,0.17
2019-01-25T02:06:12.746Z,0.12
2019-01-25T02:08:38.713Z,0.08
2019-01-25T02:11:04.603Z,0.14
2019-01-25T02:13:30.477Z,0.21
2019-01-25T02:15:56.514Z,0.20
2019-01-25T02:18:22.526Z,0.21
2019-01-25T02:20:48.405Z,0.23
2019-01-25T02:23:14.300Z,0.07
2019-01-25T02:25:40.236Z,-0.04
2019-01-25T02:28:06.122Z,-0.10
2019-01-25T02:30:32.008Z,-0.12
2019-01-25T02:32:58.015Z,-0.18
2019-01-25T02:35:23.894Z,-0.20
2019-01-25T02:37:49.778Z,-0.16
2019-01-25T02:40:20.590Z,-0.17
2019-01-25T02:42:46.699Z,-0.10
2019-01-25T02:45:12.648Z,-0.15
2019-01-25T02:47:38.518Z,-0.17
2019-01-25T02:50:13.735Z,-0.24
2019-01-25T02:52:39.625Z,-0.21
2019-01-25T02:55:07.426Z,-0.20
2019-01-25T02:57:33.293Z,-0.22
2019-01-25T02:59:59.269Z,-0.26
2019-01-25T03:02:25.140Z,-0.29
2019-01-25T03:04:51.086Z,-0.34
2019-01-25T03:07:16.981Z,-0.33
2019-01-25T03:09:42.974Z,-0.30
2019-01-25T03:12:10.160Z,-0.27
2019-01-25T03:14:36.142Z,-0.21
2019-01-25T03:17:02.040Z,-0.25
2019-01-25T03:19:27.927Z,-0.25
2019-01-25T03:21:53.838Z,-0.20
2019-01-25T03:24:19.729Z,-0.12
2019-01-25T03:26:45.776Z,-0.19
2019-01-25T03:29:11.824Z,-0.18
2019-01-25T03:31:38.148Z,-0.20
2019-01-25T03:34:04.108Z,-0.17
2019-01-25T03:36:30.009Z,-0.24
2019-01-25T03:38:55.861Z,-0.36
2019-01-25T03:41:21.753Z,-0.26
2019-01-25T03:43:47.938Z,-0.33
2019-01-25T03:46:13.823Z,-0.34
2019-01-25T03:48:39.746Z,-0.31
2019-01-25T03:51:05.594Z,-0.45
2019-01-25T03:53:31.546Z,-0.41
2019-01-25T03:55:57.409Z,-0.42
2019-01-25T03:58:23.310Z,-0.49
2019-01-25T04:00:49.256Z,-0.47
2019-01-25T04:03:15.487Z,-0.40
2019-01-25T04:05:41.358Z,-0.36
2019-01-25T04:08:07.301Z,-0.38
2019-01-25T04:10:34.312Z,-0.35
2019-01-25T04:13:00.180Z,-0.23
2019-01-25T04:15:29.211Z,-0.19
2019-01-25T04:17:55.148Z,-0.28
2019-01-25T04:20:22.069Z,-0.39
2019-01-25T04:22:48.020Z,-0.40
2019-01-25T04:25:16.037Z,-0.37
2019-01-25T04:27:41.931Z,-0.45
2019-01-25T04:30:11.294Z,-0.47
2019-01-25T04:32:37.166Z,-0.40
2019-01-25T04:35:05.295Z,-0.38
2019-01-25T04:37:33.126Z,-0.30
2019-01-25T04:39:58.996Z,-0.34
2019-01-25T04:42:24.895Z,-0.43
2019-01-25T04:44:50.985Z,-0.60
2019-01-25T04:47:18.797Z,-0.68
2019-01-25T04:49:44.692Z,-0.64
2019-01-25T04:52:11.077Z,-0.66
2019-01-25T04:54:36.996Z,-0.60
2019-01-25T04:57:02.936Z,-0.51
2019-01-25T04:59:28.905Z,-0.61
2019-01-25T05:01:54.834Z,-0.63
2019-01-25T05:04:20.698Z,-0.56
2019-01-25T05:06:46.586Z,-0.66
2019-01-25T05:09:12.611Z,-0.68
2019-01-25T05:11:38.469Z,-0.70
2019-01-25T05:14:04.340Z,-0.49
2019-01-25T05:16:30.258Z,-0.52
2019-01-25T05:18:56.132Z,-0.53
2019-01-25T05:21:22.038Z,-0.54
2019-01-25T05:23:48.102Z,-0.56
2019-01-25T05:26:14.007Z,-0.39
2019-01-25T05:28:39.863Z,-0.42
2019-01-25T05:31:06.124Z,-0.38
2019-01-25T05:33:32.031Z,-0.42
2019-01-25T05:35:57.904Z,-0.41
2019-01-25T05:38:23.886Z,-0.43
2019-01-25T05:40:49.771Z,-0.47
2019-01-25T05:43:15.667Z,-0.48
2019-01-25T05:45:43.332Z,-0.46
2019-01-25T05:48:10.609Z,-0.44
2019-01-25T05:50:36.796Z,-0.44
2019-01-25T05:53:02.697Z,-0.51
2019-01-25T05:55:28.624Z,-0.43
2019-01-25T05:57:59.076Z,-0.52
2019-01-25T06:00:33.242Z,-0.47
2019-01-25T06:03:04.541Z,-0.57
2019-01-25T06:05:30.506Z,-0.52
2019-01-25T06:07:56.506Z,-0.55
2019-01-25T06:10:24.335Z,-0.65
2019-01-25T06:12:54.780Z,-0.68
2019-01-25T06:15:20.790Z,-0.74
2019-01-25T06:17:46.869Z,-0.71
2019-01-25T06:20:14.687Z,-0.67
2019-01-25T06:22:40.633Z,-0.71
2019-01-25T06:25:07.106Z,-0.75
2019-01-25T06:27:39.413Z,-0.65
2019-01-25T06:30:12.876Z,-0.58
2019-01-25T06:32:38.974Z,-0.49
2019-01-25T06:35:06.903Z,-0.61
2019-01-25T06:37:34.989Z,-0.54
2019-01-25T06:40:00.907Z,-0.45
2019-01-25T06:42:26.794Z,-0.49
2019-01-25T06:44:52.648Z,-0.59
2019-01-25T06:47:18.535Z,-0.48
2019-01-25T06:49:44.571Z,-0.62
2019-01-25T06:52:10.456Z,-0.73
2019-01-25T06:54:36.364Z,-0.71
2019-01-25T06:57:04.184Z,-0.36
2019-01-25T06:59:31.997Z,-0.53
2019-01-25T07:01:59.910Z,-0.42
2019-01-25T07:04:25.828Z,-0.36
2019-01-25T07:06:51.740Z,-0.28
2019-01-25T07:09:17.608Z,0.19
2019-01-25T07:11:43.710Z,-0.19
2019-01-25T07:14:09.640Z,-0.09
2019-01-25T07:16:35.542Z,-0.19
2019-01-25T07:19:01.438Z,-0.28
2019-01-25T07:21:27.384Z,-0.21
2019-01-25T07:23:56.012Z,-0.31
2019-01-25T07:26:21.938Z,-0.21
2019-01-25T07:28:47.840Z,-0.32
2019-01-25T07:31:13.827Z,-0.30
2019-01-25T07:33:42.983Z,-0.44
2019-01-25T07:36:08.881Z,-0.44
2019-01-25T07:38:34.813Z,-0.37
2019-01-25T07:41:00.783Z,-0.24
2019-01-25T07:43:26.735Z,-0.37
2019-01-25T07:45:52.588Z,-0.26
2019-01-25T07:48:18.635Z,-0.28
2019-01-25T07:50:44.640Z,-0.29
2019-01-25T07:53:10.539Z,-0.26
2019-01-25T07:55:36.420Z,-0.23
2019-01-25T07:58:02.386Z,-0.13
2019-01-25T08:00:28.267Z,-0.02
2019-01-25T08:02:54.129Z,0.10
2019-01-25T08:05:20.017Z,0.25
2019-01-25T08:07:46.007Z,0.26
2019-01-25T08:10:18.771Z,0.32
2019-01-25T08:12:44.891Z,0.29
2019-01-25T08:15:14.493Z,0.44
2019-01-25T08:17:40.609Z,0.40
2019-01-25T08:20:09.737Z,0.68
2019-01-25T08:22:35.579Z,0.65
2019-01-25T08:25:01.640Z,0.70
2019-01-25T08:27:27.530Z,0.88
2019-01-25T08:29:53.476Z,0.90
2019-01-25T08:32:19.420Z,1.04
2019-01-25T08:34:45.326Z,1.10
2019-01-25T08:37:11.188Z,1.25
2019-01-25T08:39:37.228Z,1.16
2019-01-25T08:42:03.081Z,1.15
2019-01-25T08:44:28.971Z,1.20
2019-01-25T08:46:55.070Z,1.29
2019-01-25T08:49:20.970Z,1.29
2019-01-25T08:51:46.834Z,1.31
2019-01-25T08:54:14.226Z,1.41
2019-01-25T08:56:40.319Z,1.43
2019-01-25T08:59:06.202Z,1.58
2019-01-25T09:01:32.137Z,1.66
2019-01-25T09:03:58.162Z,1.70
2019-01-25T09:06:24.031Z,1.91
2019-01-25T09:08:49.918Z,1.99
2019-01-25T09:11:15.906Z,2.06
2019-01-25T09:13:41.779Z,2.24
2019-01-25T09:16:07.785Z,2.26
2019-01-25T09:18:33.839Z,2.36
2019-01-25T09:20:59.900Z,2.42
2019-01-25T09:23:25.877Z,2.66
2019-01-25T09:25:51.805Z,2.66
2019-01-25T09:28:17.739Z,2.75
2019-01-25T09:30:43.610Z,2.84
2019-01-25T09:33:09.492Z,3.14
2019-01-25T09:35:35.447Z,3.17
2019-01-25T09:38:01.404Z,3.29
2019-01-25T09:40:27.889Z,3.34
2019-01-25T09:42:54.035Z,3.49
2019-01-25T09:45:20.415Z,3.59
2019-01-25T09:47:46.298Z,3.70
2019-01-25T09:50:17.234Z,3.70
2019-01-25T09:52:43.343Z,3.80
2019-01-25T09:55:14.678Z,3.78
2019-01-25T09:57:40.654Z,4.02
2019-01-25T10:00:19.073Z,4.11
2019-01-25T10:02:44.953Z,4.19
2019-01-25T10:05:10.817Z,4.07
2019-01-25T10:07:36.714Z,3.95
2019-01-25T10:10:05.008Z,4.25
2019-01-25T10:12:36.068Z,4.30
2019-01-25T10:14:58.774Z,4.44
2019-01-25T10:17:24.650Z,4.48
2019-01-25T10:19:50.551Z,4.45
2019-01-25T10:22:16.450Z,4.45
2019-01-25T10:24:43.432Z,4.41
2019-01-25T10:27:09.295Z,4.50
2019-01-25T10:29:35.196Z,4.78
2019-01-25T10:32:01.089Z,4.39
2019-01-25T10:34:27.040Z,4.47
2019-01-25T10:36:52.895Z,4.43
2019-01-25T10:39:18.800Z,4.50
2019-01-25T10:41:44.684Z,4.33
2019-01-25T10:44:10.516Z,4.56
2019-01-25T10:46:36.440Z,4.84
2019-01-25T10:49:02.367Z,4.40
2019-01-25T10:51:28.293Z,4.66
2019-01-25T10:53:54.190Z,4.77
2019-01-25T10:56:20.086Z,4.87
2019-01-25T10:58:45.986Z,4.92
2019-01-25T11:01:13.206Z,5.06
2019-01-25T11:03:39.076Z,4.92
2019-01-25T11:06:04.948Z,5.01
2019-01-25T11:08:30.866Z,5.10
2019-01-25T11:10:57.673Z,5.28
2019-01-25T11:13:23.552Z,5.28
2019-01-25T11:15:49.537Z,5.33
2019-01-25T11:18:15.843Z,5.35
2019-01-25T11:20:41.716Z,5.43
2019-01-25T11:23:07.615Z,5.35
2019-01-25T11:25:39.060Z,5.53
2019-01-25T11:28:05.051Z,5.53
2019-01-25T11:30:30.938Z,5.60
2019-01-25T11:32:56.824Z,5.81
2019-01-25T11:35:22.735Z,5.84
2019-01-25T11:37:52.667Z,5.84
2019-01-25T11:40:27.062Z,5.83
2019-01-25T11:42:53.791Z,5.61
2019-01-25T11:45:19.831Z,5.76
2019-01-25T11:47:45.780Z,5.83
2019-01-25T11:50:15.083Z,5.93
2019-01-25T11:52:41.026Z,5.93
2019-01-25T11:55:08.064Z,6.08
2019-01-25T11:57:33.971Z,5.85
2019-01-25T11:59:59.805Z,6.13
2019-01-25T12:02:25.813Z,6.22
2019-01-25T12:04:51.722Z,6.11
2019-01-25T12:07:17.624Z,5.79
2019-01-25T12:09:43.511Z,5.74
2019-01-25T12:12:09.520Z,6.16
2019-01-25T12:14:35.467Z,6.11
2019-01-25T12:17:01.324Z,5.94
2019-01-25T12:19:27.203Z,6.24
2019-01-25T12:21:53.107Z,6.33
2019-01-25T12:24:19.057Z,6.58
2019-01-25T12:26:45.107Z,6.50
2019-01-25T12:29:11.214Z,6.69
2019-01-25T12:31:37.120Z,6.64
2019-01-25T12:34:03.145Z,6.75
2019-01-25T12:36:28.980Z,6.64
2019-01-25T12:38:54.977Z,6.52
2019-01-25T12:41:20.831Z,6.71
2019-01-25T12:43:46.836Z,6.93
2019-01-25T12:46:12.893Z,6.94
2019-01-25T12:48:38.796Z,7.00
2019-01-25T12:51:08.597Z,6.81
2019-01-25T12:53:34.510Z,7.06
2019-01-25T12:56:00.388Z,7.38
2019-01-25T12:58:26.275Z,7.24
2019-01-25T13:00:52.175Z,7.17
2019-01-25T13:03:18.217Z,10.11
2019-01-25T13:05:45.636Z,12.98
2019-01-25T13:08:11.660Z,13.47
2019-01-25T13:10:37.578Z,13.28
2019-01-25T13:13:03.539Z,14.80
2019-01-25T13:15:29.427Z,13.03
2019-01-25T13:17:55.398Z,14.74
2019-01-25T13:20:28.786Z,13.92
2019-01-25T13:22:54.680Z,15.32
2019-01-25T13:25:20.644Z,15.71
2019-01-25T13:27:46.630Z,14.33
2019-01-25T13:30:21.612Z,13.75
2019-01-25T13:32:47.532Z,12.80
2019-01-25T13:35:13.553Z,11.52
2019-01-25T13:37:39.431Z,8.70
2019-01-25T13:40:08.888Z,7.21
2019-01-25T13:42:34.761Z,7.33
2019-01-25T13:45:00.666Z,7.53
2019-01-25T13:47:26.573Z,7.39
2019-01-25T13:49:52.538Z,7.00
2019-01-25T13:52:18.425Z,6.85
2019-01-25T13:54:44.344Z,6.84
2019-01-25T13:57:10.291Z,7.11
2019-01-25T13:59:36.174Z,7.25
2019-01-25T14:02:02.061Z,7.13
2019-01-25T14:04:27.988Z,6.98
2019-01-25T14:06:53.883Z,6.88
2019-01-25T14:09:19.869Z,7.33
2019-01-25T14:11:45.849Z,8.89
2019-01-25T14:14:11.892Z,7.14
2019-01-25T14:16:37.718Z,6.90
2019-01-25T14:19:03.694Z,6.78
2019-01-25T14:21:29.615Z,7.04
2019-01-25T14:23:56.458Z,6.67
2019-01-25T14:26:22.331Z,6.53
2019-01-25T14:28:48.278Z,6.61
2019-01-25T14:31:14.188Z,6.65
2019-01-25T14:33:40.097Z,6.69
2019-01-25T14:36:06.008Z,6.74
2019-01-25T14:38:32.095Z,6.74
2019-01-25T14:40:57.964Z,7.58
2019-01-25T14:43:23.858Z,6.78
2019-01-25T14:45:49.851Z,6.72
2019-01-25T14:48:15.762Z,6.90
2019-01-25T14:50:41.620Z,6.92
2019-01-25T14:53:07.526Z,7.19
2019-01-25T14:55:36.010Z,8.06
2019-01-25T14:58:01.991Z,7.35
2019-01-25T15:00:27.864Z,6.95
2019-01-25T15:02:53.878Z,6.91
2019-01-25T15:05:19.792Z,6.57
2019-01-25T15:07:45.951Z,6.81
2019-01-25T15:10:16.760Z,6.50
2019-01-25T15:12:43.017Z,6.54
2019-01-25T15:15:11.030Z,6.41
2019-01-25T15:17:36.916Z,6.43
2019-01-25T15:20:06.833Z,6.47
2019-01-25T15:22:32.746Z,6.36
2019-01-25T15:24:58.785Z,6.27
2019-01-25T15:27:24.687Z,6.24
2019-01-25T15:29:50.622Z,6.13
2019-01-25T15:32:16.604Z,6.07
2019-01-25T15:34:42.606Z,6.02
2019-01-25T15:37:08.675Z,5.97
2019-01-25T15:39:34.688Z,5.92
2019-01-25T15:42:00.630Z,5.88
2019-01-25T15:44:26.521Z,5.80
2019-01-25T15:46:52.380Z,5.86
2019-01-25T15:49:18.315Z,5.76
2019-01-25T15:51:44.292Z,5.78
2019-01-25T15:54:10.176Z,5.59
2019-01-25T15:56:36.302Z,5.57
2019-01-25T15:59:02.193Z,5.60
2019-01-25T16:01:28.095Z,5.47
2019-01-25T16:03:54.035Z,5.41
2019-01-25T16:06:19.928Z,5.44
2019-01-25T16:08:45.794Z,5.46
2019-01-25T16:11:11.958Z,5.36
2019-01-25T16:13:37.971Z,5.28
2019-01-25T16:16:03.895Z,5.21
2019-01-25T16:18:29.745Z,5.10
2019-01-25T16:20:55.642Z,5.06
2019-01-25T16:23:21.525Z,5.08
2019-01-25T16:25:47.398Z,5.03
2019-01-25T16:28:13.407Z,4.98
2019-01-25T16:30:39.391Z,4.72
2019-01-25T16:33:05.258Z,4.45
2019-01-25T16:35:31.164Z,4.12
2019-01-25T16:37:57.132Z,4.13
2019-01-25T16:40:25.708Z,4.68
2019-01-25T16:42:51.682Z,4.19
2019-01-25T16:45:21.003Z,4.11
2019-01-25T16:47:47.047Z,3.93
2019-01-25T16:50:12.912Z,3.72
2019-01-25T16:52:38.849Z,3.67
2019-01-25T16:55:07.948Z,3.61
2019-01-25T16:57:33.821Z,3.39
2019-01-25T16:59:59.724Z,3.88
2019-01-25T17:02:25.731Z,3.97
2019-01-25T17:04:51.614Z,3.64
2019-01-25T17:07:17.484Z,3.64
2019-01-25T17:09:43.506Z,3.41
2019-01-25T17:12:09.382Z,3.36
2019-01-25T17:14:35.358Z,3.33
2019-01-25T17:17:01.200Z,3.16
2019-01-25T17:19:27.094Z,3.44
2019-01-25T17:21:52.976Z,3.30
2019-01-25T17:24:18.836Z,3.15
2019-01-25T17:26:44.717Z,2.85
2019-01-25T17:29:10.606Z,2.93
2019-01-25T17:31:36.492Z,2.95
2019-01-25T17:34:02.354Z,2.95
2019-01-25T17:36:28.367Z,2.82
2019-01-25T17:38:54.178Z,2.73
2019-01-25T17:41:20.162Z,2.62
2019-01-25T17:43:50.013Z,2.72
2019-01-25T17:46:15.932Z,2.50
2019-01-25T17:48:41.834Z,2.63
2019-01-25T17:51:07.735Z,2.56
2019-01-25T17:53:33.630Z,2.60
2019-01-25T17:55:59.639Z,2.66
2019-01-25T17:58:25.743Z,2.67
2019-01-25T18:00:53.292Z,2.45
2019-01-25T18:03:19.176Z,2.45
2019-01-25T18:05:45.034Z,2.30
2019-01-25T18:08:10.930Z,2.28
2019-01-25T18:10:36.778Z,2.44
2019-01-25T18:13:02.805Z,2.42
2019-01-25T18:15:28.802Z,2.24
2019-01-25T18:17:54.721Z,2.24
2019-01-25T18:20:21.925Z,2.27
2019-01-25T18:22:47.811Z,2.13
2019-01-25T18:25:23.119Z,2.14
2019-01-25T18:27:52.922Z,1.99
2019-01-25T18:30:26.174Z,1.83
2019-01-25T18:32:52.093Z,1.80
2019-01-25T18:35:18.257Z,1.79
2019-01-25T18:37:44.117Z,1.69
2019-01-25T18:40:10.858Z,1.72
2019-01-25T18:42:37.198Z,1.73
2019-01-25T18:45:06.337Z,1.78
2019-01-25T18:47:32.254Z,1.79
2019-01-25T18:49:58.116Z,1.69
2019-01-25T18:52:24.021Z,1.67
2019-01-25T18:54:49.967Z,1.73
2019-01-25T18:57:15.834Z,1.71
2019-01-25T18:59:41.736Z,1.59
2019-01-25T19:02:07.749Z,1.42
2019-01-25T19:04:33.750Z,1.42
2019-01-25T19:06:59.637Z,1.57
2019-01-25T19:09:25.567Z,1.55
2019-01-25T19:11:51.568Z,1.55
2019-01-25T19:14:17.445Z,1.57
2019-01-25T19:16:43.437Z,1.64
2019-01-25T19:19:09.397Z,1.56
2019-01-25T19:21:35.276Z,1.51
2019-01-25T19:24:01.167Z,1.52
2019-01-25T19:26:27.442Z,1.37
2019-01-25T19:28:53.820Z,1.40
2019-01-25T19:31:20.016Z,1.34
2019-01-25T19:33:45.985Z,1.18
2019-01-25T19:36:11.856Z,1.13
2019-01-25T19:38:37.931Z,1.13
2019-01-25T19:41:03.832Z,1.22
2019-01-25T19:43:29.750Z,1.55
2019-01-25T19:45:55.591Z,1.55
2019-01-25T19:48:21.529Z,1.30
2019-01-25T19:50:47.738Z,1.27
2019-01-25T19:53:13.645Z,1.21
2019-01-25T19:55:39.622Z,1.10
2019-01-25T19:58:08.795Z,0.88
2019-01-25T20:00:40.693Z,0.77
2019-01-25T20:03:06.612Z,0.70
2019-01-25T20:05:32.493Z,0.69
2019-01-25T20:07:58.465Z,0.63
2019-01-25T20:10:24.348Z,0.53
2019-01-25T20:12:50.331Z,0.76
2019-01-25T20:15:19.483Z,0.81
2019-01-25T20:17:45.657Z,1.00
2019-01-25T20:20:24.347Z,0.95
2019-01-25T20:22:50.209Z,0.99
2019-01-25T20:25:16.091Z,0.91
2019-01-25T20:27:42.007Z,0.86
2019-01-25T20:30:17.484Z,0.72
2019-01-25T20:32:43.385Z,0.64
2019-01-25T20:35:12.797Z,0.50
2019-01-25T20:37:38.844Z,0.40
2019-01-25T20:40:08.570Z,0.73
2019-01-25T20:42:34.434Z,0.71
2019-01-25T20:45:00.355Z,0.70
2019-01-25T20:47:26.364Z,0.66
2019-01-25T20:49:52.260Z,0.73
2019-01-25T20:52:18.143Z,0.72
2019-01-25T20:54:44.061Z,0.71
2019-01-25T20:57:09.923Z,0.67
2019-01-25T20:59:36.168Z,0.63
2019-01-25T21:02:02.064Z,0.57
2019-01-25T21:04:27.932Z,0.47
2019-01-25T21:06:53.823Z,0.35
2019-01-25T21:09:19.716Z,0.35
2019-01-25T21:11:45.580Z,0.33
2019-01-25T21:14:11.457Z,0.49
2019-01-25T21:16:37.370Z,0.44
2019-01-25T21:19:03.251Z,0.42
2019-01-25T21:21:30.794Z,0.48
2019-01-25T21:23:56.679Z,0.42
2019-01-25T21:26:22.531Z,0.33
2019-01-25T21:28:48.496Z,0.32
2019-01-25T21:31:14.368Z,0.54
2019-01-25T21:33:40.226Z,0.54
2019-01-25T21:36:06.121Z,0.55
2019-01-25T21:38:32.059Z,0.47
2019-01-25T21:40:57.934Z,0.38
2019-01-25T21:43:23.815Z,0.28
2019-01-25T21:45:49.800Z,0.28
2019-01-25T21:48:15.773Z,0.26
2019-01-25T21:50:42.339Z,0.14
2019-01-25T21:53:08.279Z,0.18
2019-01-25T21:55:34.146Z,0.13
2019-01-25T21:58:05.433Z,0.19
2019-01-25T22:00:30.936Z,0.18
2019-01-25T22:02:56.819Z,0.16
2019-01-25T22:05:23.592Z,0.25
2019-01-25T22:07:49.517Z,0.28
2019-01-25T22:10:21.592Z,0.31
2019-01-25T22:12:47.538Z,0.42
2019-01-25T22:15:15.607Z,0.49
2019-01-25T22:17:41.622Z,0.46
2019-01-25T22:20:20.151Z,0.58
2019-01-25T22:22:46.113Z,0.50
2019-01-25T22:25:12.050Z,0.40
2019-01-25T22:27:37.957Z,0.33
2019-01-25T22:30:10.392Z,0.36
2019-01-25T22:32:36.238Z,0.22
2019-01-25T22:35:02.741Z,0.28
2019-01-25T22:37:28.606Z,0.47
2019-01-25T22:39:54.494Z,0.41
2019-01-25T22:42:20.445Z,0.29
2019-01-25T22:44:46.316Z,0.34
2019-01-25T22:47:12.241Z,0.35
2019-01-25T22:49:38.117Z,0.26
2019-01-25T22:52:04.140Z,0.02
2019-01-25T22:54:30.036Z,-0.04
2019-01-25T22:56:55.939Z,-0.11
2019-01-25T22:59:22.551Z,-0.15
2019-01-25T23:01:48.438Z,0.04
2019-01-25T23:04:29.752Z,0.04
2019-01-25T23:06:55.736Z,0.15
2019-01-25T23:09:27.534Z,0.19
2019-01-25T23:11:53.471Z,0.13
2019-01-25T23:14:19.344Z,0.09
2019-01-25T23:16:45.210Z,0.04
2019-01-25T23:19:11.110Z,-0.01
2019-01-25T23:21:36.962Z,-0.12
2019-01-25T23:24:03.141Z,-0.13
2019-01-25T23:26:29.100Z,-0.02
2019-01-25T23:28:54.969Z,0.10
2019-01-25T23:31:20.837Z,0.16
2019-01-25T23:33:46.718Z,0.31
2019-01-25T23:36:12.578Z,0.23
2019-01-25T23:38:38.509Z,0.22
2019-01-25T23:41:04.360Z,0.08
2019-01-25T23:43:30.226Z,0.14
2019-01-25T23:45:56.215Z,-0.01
2019-01-25T23:48:22.143Z,0.05
2019-01-25T23:50:48.060Z,-0.03
2019-01-25T23:53:14.049Z,-0.11
2019-01-25T23:55:39.937Z,-0.12
2019-01-25T23:58:05.813Z,-0.10
